Time;durP1;ratioP1;P1;durP2;ratioP2;P2;SDS_P1;SDS_P2;PMS_P1;PMS_P2;Temp;Humidity;BMP_temperature;BMP_pressure;BME280_temperature;BME280_humidity;BME280_pressure;Samples;Min_cycle;Max_cycle;Signal;HPM_P1;HPM_P2
2023/01/27 00:01:32;;;;;;;9.10;6.88;;;-0.40;99.90;;;;;;5074875;28;20502;-84
2023/01/27 00:03:59;;;;;;;9.77;5.90;;;-0.50;99.90;;;;;;5064447;28;20257;-84
2023/01/27 00:06:29;;;;;;;11.30;6.43;;;-0.40;99.90;;;;;;5057965;28;20861;-84
2023/01/27 00:08:55;;;;;;;9.77;6.30;;;-0.40;99.90;;;;;;5072008;28;20443;-84
2023/01/27 00:14:12;;;;;;;11.30;7.63;;;-0.40;99.90;;;;;;5050719;28;20440;-84
2023/01/27 00:16:39;;;;;;;14.17;8.73;;;-0.40;99.90;;;;;;5068798;28;20451;-84
2023/01/27 00:19:06;;;;;;;11.35;6.63;;;-0.40;99.90;;;;;;5064349;28;20491;-84
2023/01/27 00:27:03;;;;;;;9.20;6.47;;;-0.40;99.90;;;;;;5053959;28;20455;-84
2023/01/27 00:29:32;;;;;;;9.57;6.63;;;-0.40;99.90;;;;;;5079753;28;20539;-84
2023/01/27 00:34:44;;;;;;;12.05;6.55;;;-0.40;99.90;;;;;;5066441;28;20768;-83
2023/01/27 00:37:11;;;;;;;13.18;7.22;;;-0.40;99.90;;;;;;5063583;28;20237;-84
2023/01/27 00:39:38;;;;;;;15.77;7.22;;;-0.50;99.90;;;;;;5075563;28;20205;-84
2023/01/27 00:42:06;;;;;;;13.15;7.43;;;-0.40;99.90;;;;;;5073895;28;20703;-84
2023/01/27 00:44:33;;;;;;;14.48;7.75;;;-0.50;99.90;;;;;;5055579;28;20265;-84
2023/01/27 00:47:00;;;;;;;13.17;6.77;;;-0.40;99.90;;;;;;5070785;28;20297;-84
2023/01/27 00:49:29;;;;;;;12.93;7.20;;;-0.40;99.90;;;;;;5078778;28;20520;-83
2023/01/27 00:51:56;;;;;;;9.30;6.73;;;-0.40;99.90;;;;;;5071290;28;20466;-84
2023/01/27 00:54:26;;;;;;;10.60;7.20;;;-0.40;99.90;;;;;;5057926;28;20500;-83
2023/01/27 00:56:53;;;;;;;10.70;7.37;;;-0.40;99.90;;;;;;5079730;28;20267;-83
2023/01/27 00:59:21;;;;;;;12.00;8.67;;;-0.40;99.90;;;;;;5081246;28;20537;-83
2023/01/27 01:01:48;;;;;;;11.93;7.38;;;-0.30;99.90;;;;;;5065184;28;20452;-83
2023/01/27 01:04:15;;;;;;;15.98;7.65;;;-0.40;99.90;;;;;;5073501;28;20744;-84
2023/01/27 01:06:42;;;;;;;12.82;8.25;;;-0.40;99.90;;;;;;5064769;28;20260;-83
2023/01/27 01:09:12;;;;;;;13.47;9.07;;;-0.40;99.90;;;;;;5056965;28;20530;-83
2023/01/27 01:11:41;;;;;;;13.23;7.18;;;-0.40;99.90;;;;;;5059558;28;20499;-84
2023/01/27 01:14:08;;;;;;;15.43;7.90;;;-0.40;99.90;;;;;;5068309;28;20610;-84
2023/01/27 01:16:36;;;;;;;12.77;8.03;;;-0.40;99.90;;;;;;5058573;28;20908;-84
2023/01/27 01:19:03;;;;;;;11.17;6.57;;;-0.40;99.90;;;;;;5064566;28;20502;-84
2023/01/27 01:21:30;;;;;;;16.23;8.60;;;-0.40;99.90;;;;;;5056891;28;20452;-83
2023/01/27 01:23:57;;;;;;;14.73;8.43;;;-0.40;99.90;;;;;;5076940;28;20532;-84
2023/01/27 01:26:24;;;;;;;14.23;8.97;;;-0.40;99.90;;;;;;5066152;28;21073;-84
2023/01/27 01:28:51;;;;;;;10.50;6.90;;;-0.40;99.90;;;;;;5057375;28;20469;-83
2023/01/27 01:31:19;;;;;;;14.93;7.28;;;-0.50;99.90;;;;;;5075036;28;20478;-83
2023/01/27 01:33:48;;;;;;;12.50;6.68;;;-0.40;99.90;;;;;;5056037;28;20736;-84
2023/01/27 01:36:19;;;;;;;17.50;8.68;;;-0.40;99.90;;;;;;5064327;28;20194;-84
2023/01/27 01:38:47;;;;;;;15.63;9.00;;;-0.40;99.90;;;;;;5060143;28;20297;-83
2023/01/27 01:41:16;;;;;;;14.00;7.90;;;-0.40;99.90;;;;;;5076212;28;20225;-84
2023/01/27 01:43:43;;;;;;;17.15;9.30;;;-0.40;99.90;;;;;;5062343;28;20716;-83
2023/01/27 01:46:11;;;;;;;8.37;6.30;;;-0.40;99.90;;;;;;5066658;28;20703;-84
2023/01/27 01:48:41;;;;;;;16.38;10.00;;;-0.40;99.90;;;;;;5074832;28;20520;-84
2023/01/27 01:51:13;;;;;;;15.98;9.60;;;-0.40;99.90;;;;;;5070375;28;20209;-83
2023/01/27 01:53:48;;;;;;;19.47;8.87;;;-0.40;99.90;;;;;;5070178;28;20233;-83
2023/01/27 01:56:21;;;;;;;15.82;9.27;;;-0.50;99.90;;;;;;5069544;28;20939;-84
2023/01/27 01:58:51;;;;;;;16.65;8.25;;;-0.50;99.90;;;;;;5073756;28;20197;-84
2023/01/27 02:01:19;;;;;;;10.90;6.50;;;-0.50;99.90;;;;;;5061238;28;20589;-83
2023/01/27 02:03:50;;;;;;;12.18;7.25;;;-0.50;99.90;;;;;;5062779;28;20994;-84
2023/01/27 02:06:20;;;;;;;14.23;7.07;;;-0.50;99.90;;;;;;5062824;28;20496;-84
2023/01/27 02:08:49;;;;;;;14.40;8.60;;;-0.50;99.90;;;;;;5066058;28;20741;-83
2023/01/27 02:11:18;;;;;;;13.32;8.27;;;-0.50;99.90;;;;;;5067536;28;20725;-83
2023/01/27 02:13:46;;;;;;;14.63;8.18;;;-0.50;99.90;;;;;;5064736;28;20198;-83
2023/01/27 02:16:13;;;;;;;11.40;7.75;;;-0.50;99.90;;;;;;5080279;28;20234;-83
2023/01/27 02:18:41;;;;;;;16.13;10.50;;;-0.60;99.90;;;;;;5060056;28;20241;-84
2023/01/27 02:21:09;;;;;;;15.10;8.55;;;-0.60;99.90;;;;;;5063606;28;20241;-84
2023/01/27 02:23:49;;;;;;;15.10;8.25;;;-0.50;99.90;;;;;;5051396;28;20636;-84
2023/01/27 02:26:21;;;;;;;13.50;8.57;;;-0.50;99.90;;;;;;5076751;28;20594;-83
2023/01/27 02:28:53;;;;;;;14.40;8.67;;;-0.50;99.90;;;;;;5059370;28;20297;-83
2023/01/27 02:31:21;;;;;;;12.77;7.55;;;-0.40;99.90;;;;;;5048623;28;20461;-83
2023/01/27 02:33:49;;;;;;;17.40;9.65;;;-0.50;99.90;;;;;;5070600;28;20260;-83
2023/01/27 02:36:18;;;;;;;15.03;8.67;;;-0.50;99.90;;;;;;5065753;28;20206;-83
2023/01/27 02:38:50;;;;;;;18.37;10.17;;;-0.50;99.90;;;;;;5062934;28;20460;-83
2023/01/27 02:41:23;;;;;;;18.52;8.88;;;-0.40;99.90;;;;;;5056333;28;20806;-84
2023/01/27 02:43:54;;;;;;;19.42;9.93;;;-0.40;99.90;;;;;;5055674;28;20203;-83
2023/01/27 02:46:21;;;;;;;13.93;7.55;;;-0.40;99.90;;;;;;5058895;28;20230;-83
2023/01/27 02:48:48;;;;;;;13.52;8.25;;;-0.40;99.90;;;;;;5066696;28;20430;-83
2023/01/27 02:51:15;;;;;;;13.20;8.57;;;-0.40;99.90;;;;;;5065770;28;20603;-83
2023/01/27 02:53:43;;;;;;;15.40;9.82;;;-0.40;99.90;;;;;;5052511;28;20267;-83
2023/01/27 02:56:10;;;;;;;17.27;9.05;;;-0.40;99.90;;;;;;5052755;28;20198;-83
2023/01/27 02:58:39;;;;;;;14.40;9.18;;;-0.40;99.90;;;;;;5063187;28;20463;-83
2023/01/27 03:01:05;;;;;;;16.23;8.52;;;-0.40;99.90;;;;;;5067103;28;20238;-83
2023/01/27 03:03:32;;;;;;;16.13;7.82;;;-0.40;99.90;;;;;;5060189;28;20268;-83
2023/01/27 03:05:59;;;;;;;14.65;8.63;;;-0.40;99.90;;;;;;5072518;28;20704;-83
2023/01/27 03:08:26;;;;;;;15.85;9.55;;;-0.40;99.90;;;;;;5060021;28;20263;-83
2023/01/27 03:10:55;;;;;;;14.68;8.75;;;-0.40;99.90;;;;;;5055684;28;20217;-83
2023/01/27 03:13:23;;;;;;;16.27;8.73;;;-0.40;99.90;;;;;;5057131;28;20213;-83
2023/01/27 03:18:36;;;;;;;17.63;7.88;;;-0.40;99.90;;;;;;5060983;28;20216;-83
2023/01/27 03:21:08;;;;;;;15.20;8.95;;;-0.40;99.90;;;;;;5067056;28;20250;-83
2023/01/27 03:23:35;;;;;;;17.77;9.07;;;-0.40;99.90;;;;;;5065857;28;20232;-83
2023/01/27 03:26:06;;;;;;;16.27;9.00;;;-0.40;99.90;;;;;;5060619;28;20266;-83
2023/01/27 03:28:33;;;;;;;15.05;9.45;;;-0.40;99.90;;;;;;5069666;28;20259;-83
2023/01/27 03:31:02;;;;;;;19.38;9.82;;;-0.50;99.90;;;;;;5079996;28;20348;-83
2023/01/27 03:33:29;;;;;;;14.55;9.43;;;-0.40;99.90;;;;;;5045019;28;20241;-83
2023/01/27 03:46:55;;;;;;;16.77;8.07;;;-0.50;99.90;;;;;;5046632;28;20292;-83
2023/01/27 03:49:22;;;;;;;21.37;9.40;;;-0.50;99.90;;;;;;5061427;28;20552;-83
2023/01/27 03:51:49;;;;;;;19.45;8.95;;;-0.40;99.90;;;;;;5064321;28;20597;-83
2023/01/27 03:54:16;;;;;;;22.20;11.80;;;-0.50;99.90;;;;;;5054011;28;20521;-83
2023/01/27 03:56:43;;;;;;;16.40;9.30;;;-0.50;99.90;;;;;;5056536;28;20540;-83
2023/01/27 03:59:10;;;;;;;15.98;8.52;;;-0.50;99.90;;;;;;5062103;28;20553;-83
2023/01/27 04:01:38;;;;;;;18.77;9.23;;;-0.50;99.90;;;;;;5067552;28;20266;-83
2023/01/27 04:06:55;;;;;;;18.87;9.93;;;-0.50;99.90;;;;;;5081968;28;20691;-83
2023/01/27 04:09:23;;;;;;;13.73;8.13;;;-0.50;99.90;;;;;;5068963;28;20558;-83
2023/01/27 04:11:58;;;;;;;16.10;8.73;;;-0.60;99.90;;;;;;5072180;28;20487;-83
2023/01/27 04:14:27;;;;;;;18.55;8.65;;;-0.50;99.90;;;;;;5066122;28;20205;-83
2023/01/27 04:16:56;;;;;;;13.50;7.15;;;-0.60;99.90;;;;;;5053576;28;20642;-83
2023/01/27 04:19:25;;;;;;;17.30;8.75;;;-0.60;99.90;;;;;;5061159;28;20261;-83
2023/01/27 04:21:53;;;;;;;13.00;7.53;;;-0.60;99.90;;;;;;5053184;28;20206;-83
2023/01/27 04:24:23;;;;;;;17.38;10.02;;;-0.60;99.90;;;;;;5054163;28;20299;-83
2023/01/27 04:26:53;;;;;;;20.58;10.10;;;-0.60;99.90;;;;;;5045519;28;20276;-83
2023/01/27 04:29:21;;;;;;;15.30;8.30;;;-0.60;99.90;;;;;;5064129;28;20308;-83
2023/01/27 04:31:48;;;;;;;14.73;7.82;;;-0.70;99.90;;;;;;5054154;28;20307;-83
2023/01/27 04:34:17;;;;;;;12.55;7.80;;;-0.70;99.90;;;;;;5060042;28;20201;-83
2023/01/27 04:36:47;;;;;;;17.20;8.52;;;-0.70;99.90;;;;;;5053783;28;20230;-83
2023/01/27 04:39:15;;;;;;;16.63;9.60;;;-0.70;99.90;;;;;;5067185;28;20693;-82
2023/01/27 04:41:42;;;;;;;18.20;10.57;;;-0.80;99.90;;;;;;5062592;28;20370;-83
2023/01/27 04:44:13;;;;;;;18.48;9.10;;;-0.80;99.90;;;;;;5055461;28;20206;-82
2023/01/27 04:46:40;;;;;;;13.05;6.90;;;-0.80;99.90;;;;;;5056207;28;20781;-83
2023/01/27 04:49:08;;;;;;;14.43;9.30;;;-0.80;99.90;;;;;;5051160;28;20206;-82
2023/01/27 04:51:35;;;;;;;12.85;8.13;;;-0.80;99.90;;;;;;5060935;28;20260;-82
2023/01/27 04:54:06;;;;;;;14.35;9.05;;;-0.80;99.90;;;;;;5068391;28;20234;-83
2023/01/27 04:56:43;;;;;;;17.33;8.67;;;-0.80;99.90;;;;;;5066085;28;20298;-82
2023/01/27 04:59:15;;;;;;;15.13;7.70;;;-0.80;99.90;;;;;;5065484;28;20469;-84
2023/01/27 05:01:42;;;;;;;17.08;8.60;;;-0.90;99.90;;;;;;5056802;28;20288;-82
2023/01/27 05:04:09;;;;;;;15.65;7.72;;;-0.80;99.90;;;;;;5064081;28;20238;-82
2023/01/27 05:06:36;;;;;;;21.27;9.15;;;-0.80;99.90;;;;;;5062249;28;20253;-82
2023/01/27 05:09:04;;;;;;;14.77;8.48;;;-0.80;99.90;;;;;;5066014;28;20202;-82
2023/01/27 05:11:31;;;;;;;18.80;10.13;;;-0.80;99.90;;;;;;5064774;28;20238;-82
2023/01/27 05:13:58;;;;;;;15.27;8.98;;;-0.80;99.90;;;;;;5064931;28;20314;-84
2023/01/27 05:16:26;;;;;;;16.40;8.18;;;-0.80;99.90;;;;;;5060243;28;20238;-84
2023/01/27 05:18:54;;;;;;;16.75;9.45;;;-0.80;99.90;;;;;;5060805;28;20217;-84
2023/01/27 05:21:24;;;;;;;14.20;8.60;;;-0.80;99.90;;;;;;5064717;28;20255;-84
2023/01/27 05:23:51;;;;;;;16.88;9.70;;;-0.80;99.90;;;;;;5059624;28;20449;-84
2023/01/27 05:26:24;;;;;;;21.33;10.75;;;-0.80;99.90;;;;;;5059576;28;20262;-84
2023/01/27 05:29:01;;;;;;;14.95;9.30;;;-0.80;99.90;;;;;;5051725;28;20206;-82
2023/01/27 05:31:32;;;;;;;15.88;8.88;;;-0.80;99.90;;;;;;5060115;28;20607;-84
2023/01/27 05:34:02;;;;;;;14.85;7.93;;;-0.80;99.90;;;;;;5055668;28;20371;-85
2023/01/27 05:36:29;;;;;;;15.07;9.23;;;-0.80;99.90;;;;;;5064444;28;20233;-85
2023/01/27 05:38:57;;;;;;;18.17;9.27;;;-0.80;99.90;;;;;;5054603;28;20207;-84
2023/01/27 05:41:30;;;;;;;17.63;8.80;;;-0.80;99.90;;;;;;5053887;28;20268;-84
2023/01/27 05:44:00;;;;;;;15.82;9.57;;;-0.70;99.90;;;;;;5061718;28;20279;-84
2023/01/27 05:46:35;;;;;;;16.52;9.20;;;-0.70;99.90;;;;;;5065688;28;20237;-85
2023/01/27 05:49:08;;;;;;;16.27;9.23;;;-0.80;99.90;;;;;;5057972;28;20911;-85
2023/01/27 05:51:40;;;;;;;15.50;8.57;;;-0.80;99.90;;;;;;5058132;28;20541;-84
2023/01/27 05:54:10;;;;;;;17.25;9.02;;;-0.80;99.90;;;;;;5057556;28;20226;-84
2023/01/27 05:56:39;;;;;;;16.85;9.20;;;-0.80;99.90;;;;;;5054224;28;20260;-84
2023/01/27 05:59:06;;;;;;;16.30;8.05;;;-0.80;99.90;;;;;;5065884;28;20218;-84
2023/01/27 06:01:36;;;;;;;23.05;9.35;;;-0.70;99.90;;;;;;5065001;28;20239;-84
2023/01/27 06:04:03;;;;;;;16.33;9.17;;;-0.70;99.90;;;;;;5069304;28;20671;-85
2023/01/27 06:06:32;;;;;;;19.77;9.15;;;-0.70;99.90;;;;;;5069675;28;21269;-84
2023/01/27 06:09:00;;;;;;;14.43;7.77;;;-0.70;99.90;;;;;;5062603;28;20230;-84
2023/01/27 06:11:27;;;;;;;16.55;8.60;;;-0.70;99.90;;;;;;5065283;28;20472;-84
2023/01/27 06:13:55;;;;;;;14.50;8.35;;;-0.80;99.90;;;;;;5063603;28;20209;-85
2023/01/27 06:16:24;;;;;;;13.90;8.63;;;-0.70;99.90;;;;;;5061262;28;20202;-85
2023/01/27 06:18:52;;;;;;;16.00;8.93;;;-0.80;99.90;;;;;;5062225;28;20233;-85
2023/01/27 06:21:19;;;;;;;14.38;8.32;;;-0.80;99.90;;;;;;5059966;28;20201;-85
2023/01/27 06:23:48;;;;;;;17.65;9.00;;;-0.80;99.90;;;;;;5060496;28;20296;-85
2023/01/27 06:26:19;;;;;;;18.15;9.10;;;-0.70;99.90;;;;;;5062648;28;20237;-85
2023/01/27 06:28:46;;;;;;;17.05;8.93;;;-0.80;99.90;;;;;;5061891;28;20267;-85
2023/01/27 06:33:57;;;;;;;17.40;9.00;;;-0.80;99.90;;;;;;5057785;28;21124;-85
2023/01/27 06:36:24;;;;;;;12.00;8.05;;;-0.80;99.90;;;;;;5063338;28;20237;-85
2023/01/27 06:38:51;;;;;;;12.40;7.72;;;-0.80;99.90;;;;;;5054462;28;20237;-82
2023/01/27 06:41:21;;;;;;;18.50;9.20;;;-0.80;99.90;;;;;;5056690;28;20238;-84
2023/01/27 06:43:48;;;;;;;17.10;8.98;;;-0.80;99.90;;;;;;5058236;28;20472;-84
2023/01/27 06:46:16;;;;;;;19.55;7.95;;;-0.70;99.90;;;;;;5054250;28;20250;-85
2023/01/27 06:48:43;;;;;;;18.65;8.93;;;-0.80;99.90;;;;;;5057146;28;20210;-85
2023/01/27 06:51:10;;;;;;;14.85;7.75;;;-0.70;99.90;;;;;;5053215;28;20718;-84
2023/01/27 06:53:38;;;;;;;14.25;9.60;;;-0.80;99.90;;;;;;5058244;28;20226;-84
2023/01/27 06:56:06;;;;;;;14.70;8.20;;;-0.80;99.90;;;;;;5058927;28;20283;-84
2023/01/27 06:58:33;;;;;;;12.82;8.35;;;-0.80;99.90;;;;;;5058860;28;20222;-84
2023/01/27 07:01:00;;;;;;;15.93;9.48;;;-0.80;99.90;;;;;;5060597;28;20224;-84
2023/01/27 07:03:31;;;;;;;17.08;8.52;;;-0.80;99.90;;;;;;5069818;28;20209;-84
2023/01/27 07:05:58;;;;;;;14.52;8.02;;;-0.70;99.90;;;;;;5062768;28;20949;-84
2023/01/27 07:08:25;;;;;;;14.45;7.95;;;-0.70;99.90;;;;;;5064511;28;20234;-84
2023/01/27 07:10:52;;;;;;;12.88;7.32;;;-0.60;99.90;;;;;;5057058;28;20285;-84
2023/01/27 07:13:19;;;;;;;16.25;8.90;;;-0.60;99.90;;;;;;5062391;28;20237;-85
2023/01/27 07:15:47;;;;;;;16.05;7.30;;;-0.60;99.90;;;;;;5049560;28;20262;-84
2023/01/27 07:18:14;;;;;;;17.35;7.90;;;-0.50;99.90;;;;;;5060496;28;20214;-85
2023/01/27 07:20:42;;;;;;;14.10;6.97;;;-0.50;99.90;;;;;;5051234;28;20203;-85
2023/01/27 07:23:13;;;;;;;15.00;9.00;;;-0.40;99.90;;;;;;5057541;28;20233;-85
2023/01/27 07:25:40;;;;;;;18.47;8.27;;;-0.40;99.90;;;;;;5057337;28;20265;-85
2023/01/27 07:28:07;;;;;;;12.30;7.07;;;-0.30;99.90;;;;;;5056592;28;21016;-85
2023/01/27 07:30:37;;;;;;;16.00;9.63;;;-0.40;99.90;;;;;;5061608;28;20295;-85
2023/01/27 07:33:05;;;;;;;17.17;6.87;;;-0.30;99.90;;;;;;5061387;28;20521;-85
2023/01/27 07:35:32;;;;;;;18.80;8.40;;;-0.40;99.90;;;;;;5050720;28;20519;-85
2023/01/27 07:38:01;;;;;;;21.27;9.90;;;-0.40;99.90;;;;;;5062306;28;20478;-84
2023/01/27 07:40:30;;;;;;;16.90;8.55;;;-0.40;99.90;;;;;;5050766;28;20493;-85
2023/01/27 07:42:58;;;;;;;12.35;7.85;;;-0.40;99.90;;;;;;5055861;28;20721;-85
2023/01/27 07:45:26;;;;;;;14.15;8.93;;;-0.30;99.90;;;;;;5060715;28;20206;-85
2023/01/27 07:47:53;;;;;;;18.63;9.43;;;-0.40;99.90;;;;;;5060669;28;20310;-85
2023/01/27 07:50:20;;;;;;;15.07;7.82;;;-0.30;99.90;;;;;;5061746;28;20619;-85
2023/01/27 07:52:47;;;;;;;15.02;7.63;;;-0.30;99.90;;;;;;5050016;28;20212;-85
2023/01/27 07:55:15;;;;;;;16.17;8.77;;;-0.20;99.90;;;;;;5053589;28;20378;-85
2023/01/27 07:57:45;;;;;;;15.15;8.00;;;-0.20;99.90;;;;;;5048973;28;20771;-83
2023/01/27 08:00:14;;;;;;;14.60;7.18;;;-0.20;99.90;;;;;;5046725;28;20248;-83
2023/01/27 08:02:41;;;;;;;19.85;9.20;;;-0.20;99.90;;;;;;5057025;28;20206;-83
2023/01/27 08:05:12;;;;;;;13.88;8.80;;;-0.20;99.90;;;;;;5063988;28;20202;-83
2023/01/27 08:07:39;;;;;;;18.97;9.27;;;-0.20;99.90;;;;;;5054616;28;20237;-83
2023/01/27 08:10:06;;;;;;;13.10;8.00;;;-0.20;99.90;;;;;;5056534;28;20552;-83
2023/01/27 08:12:34;;;;;;;17.60;9.43;;;-0.10;99.90;;;;;;5059959;28;20545;-83
2023/01/27 08:15:01;;;;;;;18.67;10.70;;;-0.10;99.90;;;;;;5054387;28;20368;-83
2023/01/27 08:17:28;;;;;;;23.07;10.07;;;-0.20;99.90;;;;;;5049943;28;20230;-83
2023/01/27 08:19:55;;;;;;;17.15;9.73;;;-0.20;99.90;;;;;;5054394;28;20488;-83
2023/01/27 08:22:23;;;;;;;17.23;10.23;;;0.00;99.90;;;;;;5050591;28;20206;-83
2023/01/27 08:24:50;;;;;;;17.30;10.23;;;-0.10;99.90;;;;;;5055213;28;20964;-83
2023/01/27 08:27:22;;;;;;;18.35;10.98;;;-0.10;99.90;;;;;;5064457;28;20283;-83
2023/01/27 08:29:50;;;;;;;16.80;9.38;;;0.00;99.90;;;;;;5067254;28;20305;-83
2023/01/27 08:32:17;;;;;;;18.83;10.27;;;0.00;99.90;;;;;;5067077;28;20237;-83
2023/01/27 08:34:44;;;;;;;17.17;9.65;;;0.00;99.90;;;;;;5059444;28;20838;-83
2023/01/27 08:37:11;;;;;;;19.47;10.10;;;0.10;99.90;;;;;;5058372;28;20226;-83
2023/01/27 08:39:41;;;;;;;21.43;11.00;;;0.10;99.90;;;;;;5064851;28;20920;-83
2023/01/27 08:42:08;;;;;;;14.73;8.60;;;0.10;99.90;;;;;;5065765;28;20525;-83
2023/01/27 08:44:35;;;;;;;17.15;7.80;;;0.10;99.90;;;;;;5059774;28;20496;-84
2023/01/27 08:47:08;;;;;;;21.10;10.40;;;0.20;99.90;;;;;;5062600;28;20262;-83
2023/01/27 08:49:35;;;;;;;19.60;9.93;;;0.40;99.90;;;;;;5060641;28;20474;-83
2023/01/27 08:52:07;;;;;;;20.27;10.80;;;0.50;99.90;;;;;;5062825;28;20448;-82
2023/01/27 08:54:34;;;;;;;27.83;10.57;;;0.50;99.90;;;;;;5061310;28;20301;-83
2023/01/27 08:57:01;;;;;;;17.57;11.37;;;0.50;99.90;;;;;;5061739;28;20651;-83
2023/01/27 08:59:28;;;;;;;18.98;10.00;;;0.60;99.90;;;;;;5065218;28;20976;-83
2023/01/27 09:01:57;;;;;;;20.45;9.50;;;0.60;99.90;;;;;;5066707;28;20201;-83
2023/01/27 09:04:29;;;;;;;21.33;9.73;;;0.70;99.90;;;;;;5069522;28;20237;-83
2023/01/27 09:06:56;;;;;;;16.57;10.10;;;0.80;99.90;;;;;;5071333;28;20217;-83
2023/01/27 09:09:23;;;;;;;16.35;8.50;;;0.80;99.90;;;;;;5060632;28;20520;-83
2023/01/27 09:11:51;;;;;;;17.80;9.30;;;0.80;99.90;;;;;;5059587;28;20237;-83
2023/01/27 09:14:19;;;;;;;18.08;10.18;;;0.80;99.90;;;;;;5073318;28;20267;-83
2023/01/27 09:16:46;;;;;;;19.17;9.70;;;0.90;99.90;;;;;;5073829;28;20539;-83
2023/01/27 09:19:13;;;;;;;20.73;10.30;;;0.90;99.90;;;;;;5072056;28;20501;-82
2023/01/27 09:21:41;;;;;;;14.50;9.60;;;0.90;99.90;;;;;;5058834;28;20575;-83
2023/01/27 09:24:08;;;;;;;26.55;13.55;;;0.90;99.90;;;;;;5080133;28;20205;-83
2023/01/27 09:26:35;;;;;;;15.73;9.37;;;1.00;99.90;;;;;;5063254;28;20685;-83
2023/01/27 09:29:04;;;;;;;18.73;9.53;;;1.00;99.90;;;;;;5070865;28;20781;-83
2023/01/27 09:31:32;;;;;;;16.93;8.10;;;1.10;99.90;;;;;;5069311;28;20799;-83
2023/01/27 09:33:59;;;;;;;18.27;11.00;;;1.30;99.90;;;;;;5053419;28;20912;-83
2023/01/27 09:36:30;;;;;;;16.37;10.03;;;1.40;99.90;;;;;;5054091;28;20467;-83
2023/01/27 09:39:02;;;;;;;20.07;9.57;;;1.50;99.90;;;;;;5055778;28;20456;-83
2023/01/27 09:42:08;;;;;;;14.20;9.13;;;1.40;99.90;;;;;;5055921;28;20854;-83
2023/01/27 09:45:03;;;;;;;13.93;8.97;;;1.30;99.90;;;;;;5049254;28;20486;-83
2023/01/27 09:47:56;;;;;;;14.90;8.97;;;1.30;99.90;;;;;;5053947;28;20586;-83
2023/01/27 09:50:42;;;;;;;18.33;10.93;;;1.30;99.90;;;;;;5056741;28;20457;-83
2023/01/27 09:53:42;;;;;;;27.93;17.90;;;1.30;99.90;;;;;;5072055;28;20485;-83
2023/01/27 09:56:19;;;;;;;27.83;15.43;;;1.20;99.90;;;;;;5053764;28;20484;-83
2023/01/27 09:59:03;;;;;;;35.53;18.40;;;1.30;99.90;;;;;;5057078;28;20451;-83
2023/01/27 10:01:41;;;;;;;28.17;14.07;;;1.20;99.90;;;;;;5073731;28;20458;-83
2023/01/27 10:04:30;;;;;;;19.07;11.90;;;1.20;99.90;;;;;;5068594;28;20587;-83
2023/01/27 10:07:18;;;;;;;18.03;11.03;;;1.30;99.90;;;;;;5062611;28;20492;-83
2023/01/27 10:10:08;;;;;;;15.47;10.10;;;1.20;99.90;;;;;;5055994;28;20488;-82
2023/01/27 10:12:51;;;;;;;17.30;10.33;;;1.20;99.90;;;;;;5056510;28;20492;-82
2023/01/27 10:15:32;;;;;;;16.10;9.40;;;1.10;99.90;;;;;;5056033;28;21030;-82
2023/01/27 10:18:10;;;;;;;17.43;9.17;;;1.10;99.90;;;;;;5055743;28;20451;-82
2023/01/27 10:20:45;;;;;;;15.77;9.23;;;0.90;99.90;;;;;;5062083;28;20471;-82
2023/01/27 10:23:22;;;;;;;15.83;9.53;;;0.80;99.90;;;;;;5052376;28;20865;-83
2023/01/27 10:25:58;;;;;;;16.40;10.60;;;0.90;99.90;;;;;;5056288;28;21062;-82
2023/01/27 10:28:30;;;;;;;18.53;11.43;;;0.80;99.90;;;;;;5061527;28;21142;-82
2023/01/27 10:31:00;;;;;;;20.47;10.90;;;0.80;99.90;;;;;;5062406;28;20448;-83
2023/01/27 10:33:40;;;;;;;15.93;10.13;;;1.00;99.90;;;;;;5059502;28;20476;-82
2023/01/27 10:36:15;;;;;;;15.80;10.20;;;1.20;99.90;;;;;;5059769;28;20556;-82
2023/01/27 10:38:48;;;;;;;21.00;11.83;;;1.20;99.90;;;;;;5062828;28;20483;-82
2023/01/27 10:41:25;;;;;;;26.27;14.10;;;1.30;99.90;;;;;;5054200;28;20544;-82
2023/01/27 10:44:08;;;;;;;21.70;13.13;;;1.20;99.90;;;;;;5054394;28;20491;-82
2023/01/27 10:46:43;;;;;;;21.30;13.40;;;1.10;99.90;;;;;;5056074;28;20465;-83
2023/01/27 10:49:22;;;;;;;53.97;26.43;;;1.00;99.90;;;;;;5052178;28;20537;-83
2023/01/27 10:51:55;;;;;;;25.97;15.60;;;1.00;99.90;;;;;;5048494;28;20976;-82
2023/01/27 10:54:27;;;;;;;18.73;12.40;;;0.90;99.90;;;;;;5058127;28;21099;-82
2023/01/27 10:56:58;;;;;;;19.53;12.20;;;0.90;99.90;;;;;;5060455;28;20492;-83
2023/01/27 10:59:34;;;;;;;14.43;8.55;;;0.90;99.90;;;;;;5061359;28;20511;-82
2023/01/27 11:02:09;;;;;;;24.00;11.97;;;0.90;99.90;;;;;;5060218;28;20243;-82
2023/01/27 11:04:43;;;;;;;19.83;12.50;;;1.00;99.90;;;;;;5063892;28;20467;-82
2023/01/27 11:07:18;;;;;;;18.27;11.33;;;1.10;99.90;;;;;;5059190;28;20538;-82
2023/01/27 11:09:52;;;;;;;16.38;9.73;;;1.00;99.90;;;;;;5060257;28;20467;-83
2023/01/27 11:12:25;;;;;;;16.00;8.90;;;0.80;99.90;;;;;;5060347;28;20557;-82
2023/01/27 11:14:53;;;;;;;8.93;7.93;;;0.90;99.90;;;;;;5054315;28;20481;-82
2023/01/27 11:17:30;;;;;;;16.63;8.83;;;1.10;99.90;;;;;;5055279;28;20202;-82
2023/01/27 11:20:04;;;;;;;19.50;11.27;;;1.00;99.90;;;;;;5046822;28;20472;-82
2023/01/27 11:22:43;;;;;;;16.43;9.50;;;1.10;99.90;;;;;;5062594;28;20450;-82
2023/01/27 11:25:23;;;;;;;14.27;9.80;;;1.20;99.90;;;;;;5057916;28;20547;-82
2023/01/27 11:28:19;;;;;;;16.73;11.23;;;1.30;99.90;;;;;;5062154;28;20523;-82
2023/01/27 11:30:55;;;;;;;22.92;11.02;;;1.30;99.90;;;;;;5061079;28;20534;-82
2023/01/27 11:33:30;;;;;;;18.30;11.10;;;1.20;99.90;;;;;;5053414;28;20210;-82
2023/01/27 11:35:58;;;;;;;19.20;11.97;;;1.10;99.90;;;;;;5057076;28;20460;-82
2023/01/27 11:38:26;;;;;;;17.50;10.60;;;1.20;99.90;;;;;;5056987;28;20473;-82
2023/01/27 11:40:54;;;;;;;15.52;10.50;;;1.00;99.90;;;;;;5057384;28;20920;-82
2023/01/27 11:43:27;;;;;;;16.08;9.73;;;0.80;99.90;;;;;;5061639;28;20230;-82
2023/01/27 11:46:01;;;;;;;14.38;9.57;;;0.80;99.90;;;;;;5056209;28;20658;-83
2023/01/27 11:48:36;;;;;;;14.17;8.40;;;0.80;99.90;;;;;;5052868;28;20635;-82
2023/01/27 11:51:04;;;;;;;18.03;10.17;;;0.80;99.90;;;;;;5050213;28;20921;-83
2023/01/27 11:53:35;;;;;;;16.33;9.83;;;0.70;99.90;;;;;;5057696;28;20814;-82
2023/01/27 11:56:07;;;;;;;14.40;8.40;;;0.60;99.90;;;;;;5055089;28;20806;-82
2023/01/27 11:58:39;;;;;;;15.30;8.43;;;0.50;99.90;;;;;;5060474;28;20474;-82
2023/01/27 12:01:18;;;;;;;15.60;9.43;;;0.50;99.90;;;;;;5071669;28;20474;-82
2023/01/27 12:03:52;;;;;;;17.27;11.37;;;0.40;99.90;;;;;;5066769;28;20551;-82
2023/01/27 12:06:33;;;;;;;18.73;11.07;;;0.50;99.90;;;;;;5061867;28;20499;-82
2023/01/27 12:09:00;;;;;;;18.73;9.35;;;0.40;99.90;;;;;;5061121;28;20520;-82
2023/01/27 12:11:29;;;;;;;17.87;8.50;;;0.40;99.90;;;;;;5067506;28;20520;-83
2023/01/27 12:13:57;;;;;;;17.60;11.40;;;0.40;99.90;;;;;;5063208;28;20460;-83
2023/01/27 12:16:42;;;;;;;20.03;8.87;;;0.50;99.90;;;;;;5061491;28;20630;-83
2023/01/27 12:19:25;;;;;;;20.40;10.33;;;0.50;99.90;;;;;;5052705;28;20492;-82
2023/01/27 12:21:55;;;;;;;17.60;10.10;;;0.50;99.90;;;;;;5050534;28;20463;-83
2023/01/27 12:24:30;;;;;;;18.20;9.47;;;0.40;99.90;;;;;;5063089;28;20954;-82
2023/01/27 12:27:00;;;;;;;15.93;9.30;;;0.30;99.90;;;;;;5059592;28;20506;-83
2023/01/27 12:29:33;;;;;;;15.40;10.47;;;0.30;99.90;;;;;;5067359;28;20511;-82
2023/01/27 12:32:01;;;;;;;22.00;10.87;;;0.30;99.90;;;;;;5060798;28;20879;-82
2023/01/27 12:34:32;;;;;;;16.45;9.10;;;0.30;99.90;;;;;;5074787;28;20466;-82
2023/01/27 12:37:00;;;;;;;18.20;10.27;;;0.30;99.90;;;;;;5068418;28;20206;-83
2023/01/27 12:39:33;;;;;;;15.90;9.63;;;0.30;99.90;;;;;;5081009;28;20269;-82
2023/01/27 12:42:03;;;;;;;16.45;10.40;;;0.20;99.90;;;;;;5078213;28;20197;-82
2023/01/27 12:44:41;;;;;;;17.55;10.63;;;0.30;99.90;;;;;;5074662;28;20610;-82
2023/01/27 12:47:23;;;;;;;15.32;8.90;;;0.20;99.90;;;;;;5070938;28;20205;-82
2023/01/27 12:49:58;;;;;;;14.23;7.85;;;0.20;99.90;;;;;;5076716;28;20218;-82
2023/01/27 12:52:25;;;;;;;14.98;9.25;;;0.30;99.90;;;;;;5075193;28;20269;-82
2023/01/27 12:54:53;;;;;;;17.40;10.00;;;0.30;99.90;;;;;;5069759;28;20307;-82
2023/01/27 12:57:21;;;;;;;11.85;7.90;;;0.40;99.90;;;;;;5079165;28;21007;-82
2023/01/27 12:59:52;;;;;;;16.27;10.07;;;0.40;99.90;;;;;;5074912;28;22609;-81
2023/01/27 13:02:28;;;;;;;13.88;8.13;;;0.40;99.90;;;;;;5080405;28;20479;-82
2023/01/27 13:04:58;;;;;;;13.73;8.15;;;0.50;99.90;;;;;;5063937;28;20208;-82
2023/01/27 13:07:28;;;;;;;15.97;9.23;;;0.40;99.90;;;;;;5060151;28;20233;-83
2023/01/27 13:09:58;;;;;;;11.63;7.40;;;0.40;99.90;;;;;;5057561;28;20489;-83
2023/01/27 13:12:28;;;;;;;18.50;10.57;;;0.30;99.90;;;;;;5061843;28;20525;-83
2023/01/27 13:14:57;;;;;;;17.33;8.50;;;0.50;99.90;;;;;;5054386;28;20464;-82
2023/01/27 13:17:35;;;;;;;12.93;8.13;;;0.50;99.90;;;;;;5059822;28;20848;-83
2023/01/27 13:20:07;;;;;;;17.73;9.53;;;0.60;99.90;;;;;;5052250;28;21171;-82
2023/01/27 13:22:43;;;;;;;19.07;10.50;;;0.60;99.90;;;;;;5054100;28;20507;-82
2023/01/27 13:25:21;;;;;;;18.53;11.53;;;0.50;99.90;;;;;;5061748;28;20491;-83